PWSweather.com
Personal Weather Stations
Station Observations

BunburyAU

Lat: -33.378333, Lon: 115.651667

Elevation: 95

Station Type: Fine Offset WH2081

http://www.sedgleymanor.com/wx/index.htm

Latest ConditionsUpdated 8:30:00 PM GMT+08:08 Wednesday, Aug 20, 2014
Currently Today's Max Today's Min Today's Average
Temperature 61.9°F16.6°C 70.7°F21.5°C 50.7°F10.4°C 59.7°F15.4°C
Dew Point 55.7°F13.2°C 61.2°F16.2°C 50.5°F10.3°C 54.4°F12.4°C
Winds 3.8 mph N6.1 kmh N 8.8 mph NW14.2 kmh NW - 3.5 mph 5.6 kmh
Wind Gusts 7.6 mph12.2 kmh 16.8 mph27.0 kmh - -
Humidity 80% 100% 61% 84%
Pressure 29.87 in1011.5 mb 29.99 in1015.6 mb 29.86 in1011.2 mb -
Precipitation - 0.06 in1.5 mm - -
Hour Temp Dew Point Humidity Winds Wind Gusts Pressure Precip Precip Rate Daily Precip Total
08:30 PM 61.9°F16.6°C 55.7°F13.2°C 80% 3.8 mph N6.1 kmh N 7.6 mph12.2 kmh 29.87 in1011.5 mb 0.00 in0.0 mm 0.00 in/hr0.0 mm/hr 0.06 in1.5 mm
08:15 PM 63.0°F17.2°C 54.6°F12.6°C 74% 5.5 mph NNW8.9 kmh NNW 12.1 mph19.5 kmh 29.87 in1011.5 mb 0.00 in0.0 mm 0.00 in/hr0.0 mm/hr 0.06 in1.5 mm
08:00 PM 62.4°F16.9°C 54.8°F12.7°C 76% 4.8 mph N7.7 kmh N 9.2 mph14.8 kmh 29.87 in1011.5 mb 0.00 in0.0 mm 0.00 in/hr0.0 mm/hr 0.06 in1.5 mm
07:45 PM 62.2°F16.8°C 54.2°F12.3°C 75% 4.7 mph NNW7.6 kmh NNW 8.3 mph13.4 kmh 29.87 in1011.5 mb 0.00 in0.0 mm 0.00 in/hr0.0 mm/hr 0.06 in1.5 mm
07:30 PM 62.1°F16.7°C 53.7°F12.1°C 74% 4.1 mph NNW6.6 kmh NNW 7.6 mph12.2 kmh 29.87 in1011.5 mb 0.00 in0.0 mm 0.00 in/hr0.0 mm/hr 0.06 in1.5 mm
07:15 PM 62.1°F16.7°C 54.1°F12.3°C 75% 4.1 mph NNW6.6 kmh NNW 7.6 mph12.2 kmh 29.86 in1011.2 mb 0.00 in0.0 mm 0.00 in/hr0.0 mm/hr 0.06 in1.5 mm
07:00 PM 62.4°F16.9°C 53.3°F11.8°C 72% 4.7 mph NW7.6 kmh NW 9.8 mph15.8 kmh 29.87 in1011.5 mb 0.00 in0.0 mm 0.00 in/hr0.0 mm/hr 0.06 in1.5 mm
06:45 PM 62.2°F16.8°C 52.7°F11.5°C 71% 4.6 mph NNW7.4 kmh NNW 9.8 mph15.8 kmh 29.86 in1011.2 mb 0.00 in0.0 mm 0.00 in/hr0.0 mm/hr 0.06 in1.5 mm
06:30 PM 62.2°F16.8°C 52.7°F11.5°C 71% 5.1 mph NW8.2 kmh NW 9.2 mph14.8 kmh 29.86 in1011.2 mb 0.00 in0.0 mm 0.00 in/hr0.0 mm/hr 0.06 in1.5 mm
06:15 PM 62.4°F16.9°C 52.5°F11.4°C 70% 4.6 mph NNW7.4 kmh NNW 9.8 mph15.8 kmh 29.86 in1011.2 mb 0.00 in0.0 mm 0.00 in/hr0.0 mm/hr 0.06 in1.5 mm
06:00 PM 62.6°F17.0°C 51.9°F11.1°C 68% 5.4 mph N8.7 kmh N 11.4 mph18.3 kmh 29.86 in1011.2 mb 0.00 in0.0 mm 0.00 in/hr0.0 mm/hr 0.06 in1.5 mm
05:45 PM 62.8°F17.1°C 53.6°F12.0°C 72% 5.5 mph NNW8.9 kmh NNW 10.7 mph17.2 kmh 29.87 in1011.5 mb 0.00 in0.0 mm 0.00 in/hr0.0 mm/hr 0.06 in1.5 mm
05:30 PM 63.0°F17.2°C 56.4°F13.6°C 79% 5.6 mph NW9.0 kmh NW 11.4 mph18.3 kmh 29.87 in1011.5 mb 0.00 in0.0 mm 0.00 in/hr0.0 mm/hr 0.06 in1.5 mm
05:15 PM 63.0°F17.2°C 57.4°F14.1°C 82% 6.4 mph NNW10.3 kmh NNW 12.1 mph19.5 kmh 29.87 in1011.5 mb 0.00 in0.0 mm 0.00 in/hr0.0 mm/hr 0.06 in1.5 mm
05:00 PM 64.0°F17.8°C 57.8°F14.3°C 80% 7.0 mph NNW11.3 kmh NNW 14.5 mph23.3 kmh 29.87 in1011.5 mb 0.00 in0.0 mm 0.00 in/hr0.0 mm/hr 0.06 in1.5 mm
04:45 PM 65.7°F18.7°C 55.2°F12.9°C 69% 6.3 mph NNW10.1 kmh NNW 12.1 mph19.5 kmh 29.87 in1011.5 mb 0.00 in0.0 mm 0.00 in/hr0.0 mm/hr 0.06 in1.5 mm
04:30 PM 66.0°F18.9°C 57.9°F14.4°C 75% 7.3 mph NNW11.7 kmh NNW 14.5 mph23.3 kmh 29.87 in1011.5 mb 0.00 in0.0 mm 0.00 in/hr0.0 mm/hr 0.06 in1.5 mm
04:15 PM 66.4°F19.1°C 57.1°F13.9°C 72% 8.8 mph NW14.2 kmh NW 16.8 mph27.0 kmh 29.87 in1011.5 mb 0.00 in0.0 mm 0.00 in/hr0.0 mm/hr 0.06 in1.5 mm
04:00 PM 65.5°F18.6°C 56.6°F13.7°C 73% 8.1 mph NNW13.0 kmh NNW 15.2 mph24.5 kmh 29.86 in1011.2 mb 0.00 in0.0 mm 0.00 in/hr0.0 mm/hr 0.06 in1.5 mm
03:45 PM 67.5°F19.7°C 56.1°F13.4°C 67% 7.6 mph NW12.2 kmh NW 16.8 mph27.0 kmh 29.87 in1011.5 mb 0.00 in0.0 mm 0.00 in/hr0.0 mm/hr 0.06 in1.5 mm
03:30 PM 67.6°F19.8°C 55.0°F12.8°C 64% 7.1 mph N11.4 kmh N 14.5 mph23.3 kmh 29.87 in1011.5 mb 0.00 in0.0 mm 0.00 in/hr0.0 mm/hr 0.06 in1.5 mm
03:15 PM 67.1°F19.5°C 54.5°F12.5°C 64% 6.9 mph NNW11.1 kmh NNW 13.6 mph21.9 kmh 29.86 in1011.2 mb 0.00 in0.0 mm 0.00 in/hr0.0 mm/hr 0.06 in1.5 mm
03:00 PM 67.8°F19.9°C 55.6°F13.1°C 65% 7.2 mph NNW11.6 kmh NNW 13.6 mph21.9 kmh 29.88 in1011.9 mb 0.00 in0.0 mm 0.00 in/hr0.0 mm/hr 0.06 in1.5 mm
02:45 PM 68.2°F20.1°C 55.1°F12.8°C 63% 6.1 mph NW9.8 kmh NW 13.0 mph20.9 kmh 29.88 in1011.9 mb 0.01 in0.3 mm 0.00 in/hr0.0 mm/hr 0.06 in1.5 mm
02:30 PM 68.2°F20.1°C 55.1°F12.8°C 63% 6.2 mph NW10.0 kmh NW 15.9 mph25.6 kmh 29.87 in1011.5 mb 0.01 in0.3 mm 0.00 in/hr0.0 mm/hr 0.06 in1.5 mm
02:15 PM 68.0°F20.0°C 54.5°F12.5°C 62% 5.7 mph NNW9.2 kmh NNW 11.4 mph18.3 kmh 29.87 in1011.5 mb 0.01 in0.3 mm 0.00 in/hr0.0 mm/hr 0.06 in1.5 mm
02:00 PM 66.9°F19.4°C 57.2°F14.0°C 71% 5.9 mph NW9.5 kmh NW 11.4 mph18.3 kmh 29.88 in1011.9 mb 0.01 in0.3 mm 0.01 in/hr0.3 mm/hr 0.06 in1.5 mm
01:45 PM 65.7°F18.7°C 58.3°F14.6°C 77% 2.5 mph WNW4.0 kmh WNW 7.6 mph12.2 kmh 29.89 in1012.2 mb 0.00 in0.0 mm 0.00 in/hr0.0 mm/hr 0.05 in1.3 mm
01:30 PM 64.6°F18.1°C 55.4°F13.0°C 72% 3.6 mph W5.8 kmh W 13.6 mph21.9 kmh 29.89 in1012.2 mb 0.00 in0.0 mm 0.00 in/hr0.0 mm/hr 0.05 in1.3 mm
01:15 PM 68.7°F20.4°C 55.2°F12.9°C 62% 3.7 mph NW6.0 kmh NW 8.3 mph13.4 kmh 29.89 in1012.2 mb 0.00 in0.0 mm 0.00 in/hr0.0 mm/hr 0.05 in1.3 mm
01:00 PM 70.7°F21.5°C 56.6°F13.7°C 61% 4.4 mph N7.1 kmh N 11.4 mph18.3 kmh 29.89 in1012.2 mb 0.00 in0.0 mm 0.00 in/hr0.0 mm/hr 0.05 in1.3 mm
12:45 PM 68.7°F20.4°C 55.6°F13.1°C 63% 5.5 mph NW8.9 kmh NW 15.9 mph25.6 kmh 29.89 in1012.2 mb 0.00 in0.0 mm 0.00 in/hr0.0 mm/hr 0.05 in1.3 mm
12:30 PM 69.1°F20.6°C 56.4°F13.6°C 64% 4.3 mph NW6.9 kmh NW 9.2 mph14.8 kmh 29.90 in1012.5 mb 0.02 in0.5 mm 0.00 in/hr0.0 mm/hr 0.05 in1.3 mm
12:15 PM 69.3°F20.7°C 58.7°F14.8°C 69% 2.9 mph NW4.7 kmh NW 9.8 mph15.8 kmh 29.91 in1012.9 mb 0.04 in1.0 mm 0.00 in/hr0.0 mm/hr 0.05 in1.3 mm
12:00 PM 67.1°F19.5°C 61.1°F16.2°C 81% 4.5 mph N7.2 kmh N 8.3 mph13.4 kmh 29.92 in1013.2 mb 0.04 in1.0 mm 0.00 in/hr0.0 mm/hr 0.05 in1.3 mm
11:45 AM 63.1°F17.3°C 58.6°F14.8°C 85% 3.0 mph N4.8 kmh N 9.8 mph15.8 kmh 29.93 in1013.5 mb 0.04 in1.0 mm 0.12 in/hr3.0 mm/hr 0.05 in1.3 mm
11:30 AM 63.5°F17.5°C 56.5°F13.6°C 78% 5.6 mph NNW9.0 kmh NNW 12.1 mph19.5 kmh 29.93 in1013.5 mb 0.01 in0.3 mm 0.04 in/hr1.0 mm/hr 0.02 in0.5 mm
11:15 AM 65.5°F18.6°C 56.6°F13.7°C 73% 7.0 mph N11.3 kmh N 12.1 mph19.5 kmh 29.92 in1013.2 mb 0.00 in0.0 mm 0.00 in/hr0.0 mm/hr 0.01 in0.3 mm
11:00 AM 67.1°F19.5°C 56.2°F13.4°C 68% 6.0 mph NW9.7 kmh NW 10.7 mph17.2 kmh 29.93 in1013.5 mb 0.00 in0.0 mm 0.00 in/hr0.0 mm/hr 0.01 in0.3 mm
10:45 AM 69.1°F20.6°C 57.3°F14.1°C 66% 7.2 mph N11.6 kmh N 14.5 mph23.3 kmh 29.93 in1013.5 mb 0.00 in0.0 mm 0.00 in/hr0.0 mm/hr 0.01 in0.3 mm
10:30 AM 67.8°F19.9°C 58.1°F14.5°C 71% 6.0 mph N9.7 kmh N 11.4 mph18.3 kmh 29.94 in1013.9 mb 0.00 in0.0 mm 0.00 in/hr0.0 mm/hr 0.01 in0.3 mm
10:15 AM 68.5°F20.3°C 59.2°F15.1°C 72% 4.7 mph N7.6 kmh N 9.2 mph14.8 kmh 29.94 in1013.9 mb 0.00 in0.0 mm 0.00 in/hr0.0 mm/hr 0.01 in0.3 mm
10:00 AM 67.1°F19.5°C 58.2°F14.6°C 73% 5.7 mph N9.2 kmh N 9.8 mph15.8 kmh 29.94 in1013.9 mb 0.00 in0.0 mm 0.00 in/hr0.0 mm/hr 0.01 in0.3 mm
09:45 AM 64.2°F17.9°C 58.3°F14.6°C 81% 4.0 mph N6.4 kmh N 9.8 mph15.8 kmh 29.95 in1014.2 mb 0.00 in0.0 mm 0.00 in/hr0.0 mm/hr 0.01 in0.3 mm
09:30 AM 63.0°F17.2°C 58.1°F14.5°C 84% 4.9 mph NNW7.9 kmh NNW 8.3 mph13.4 kmh 29.94 in1013.9 mb 0.00 in0.0 mm 0.00 in/hr0.0 mm/hr 0.01 in0.3 mm
09:15 AM 61.2°F16.2°C 61.2°F16.2°C 100% 3.4 mph N5.5 kmh N 6.0 mph9.7 kmh 29.94 in1013.9 mb 0.01 in0.3 mm 0.00 in/hr0.0 mm/hr 0.01 in0.3 mm
09:00 AM 59.9°F15.5°C 59.6°F15.3°C 99% 2.7 mph N4.3 kmh N 6.0 mph9.7 kmh 29.96 in1014.6 mb 0.01 in0.3 mm 0.00 in/hr0.0 mm/hr 0.01 in0.3 mm
08:45 AM 56.5°F13.6°C 56.2°F13.4°C 99% 1.0 mph NE1.6 kmh NE 3.1 mph5.0 kmh 29.95 in1014.2 mb 0.01 in0.3 mm 0.00 in/hr0.0 mm/hr 0.01 in0.3 mm
08:30 AM 55.9°F13.3°C 55.7°F13.2°C 99% 1.8 mph N2.9 kmh N 3.8 mph6.1 kmh 29.95 in1014.2 mb 0.01 in0.3 mm 0.04 in/hr1.0 mm/hr 0.01 in0.3 mm
08:15 AM 55.9°F13.3°C 55.7°F13.2°C 99% 2.4 mph N3.9 kmh N 5.4 mph8.7 kmh 29.95 in1014.2 mb 0.00 in0.0 mm 0.00 in/hr0.0 mm/hr 0.00 in0.0 mm
08:00 AM 55.4°F13.0°C 55.1°F12.8°C 99% 3.0 mph N4.8 kmh N 6.9 mph11.1 kmh 29.95 in1014.2 mb 0.00 in0.0 mm 0.00 in/hr0.0 mm/hr 0.00 in0.0 mm
07:45 AM 54.9°F12.7°C 54.0°F12.2°C 97% 1.8 mph N2.9 kmh N 5.4 mph8.7 kmh 29.94 in1013.9 mb 0.00 in0.0 mm 0.00 in/hr0.0 mm/hr 0.00 in0.0 mm
07:30 AM 53.8°F12.1°C 53.0°F11.7°C 97% 3.3 mph NNE5.3 kmh NNE 6.0 mph9.7 kmh 29.95 in1014.2 mb 0.00 in0.0 mm 0.00 in/hr0.0 mm/hr 0.00 in0.0 mm
07:15 AM 52.9°F11.6°C 52.9°F11.6°C 100% 1.0 mph NE1.6 kmh NE 3.1 mph5.0 kmh 29.94 in1013.9 mb 0.00 in0.0 mm 0.00 in/hr0.0 mm/hr 0.00 in0.0 mm
07:00 AM 52.5°F11.4°C 52.5°F11.4°C 100% 1.6 mph NNE2.6 kmh NNE 3.8 mph6.1 kmh 29.93 in1013.5 mb 0.00 in0.0 mm 0.00 in/hr0.0 mm/hr 0.00 in0.0 mm
06:45 AM 52.0°F11.1°C 52.0°F11.1°C 100% 1.1 mph NE1.8 kmh NE 4.5 mph7.2 kmh 29.94 in1013.9 mb 0.00 in0.0 mm 0.00 in/hr0.0 mm/hr 0.00 in0.0 mm
06:30 AM 51.8°F11.0°C 51.8°F11.0°C 100% 0.8 mph NE1.3 kmh NE 3.1 mph5.0 kmh 29.93 in1013.5 mb 0.00 in0.0 mm 0.00 in/hr0.0 mm/hr 0.00 in0.0 mm
06:15 AM 51.8°F11.0°C 51.8°F11.0°C 100% 1.5 mph NNE2.4 kmh NNE 3.8 mph6.1 kmh 29.93 in1013.5 mb 0.00 in0.0 mm 0.00 in/hr0.0 mm/hr 0.00 in0.0 mm
06:00 AM 51.8°F11.0°C 51.8°F11.0°C 100% 2.0 mph N3.2 kmh N 4.5 mph7.2 kmh 29.93 in1013.5 mb 0.00 in0.0 mm 0.00 in/hr0.0 mm/hr 0.00 in0.0 mm
05:45 AM 51.6°F10.9°C 51.4°F10.8°C 99% 1.1 mph NNE1.8 kmh NNE 3.1 mph5.0 kmh 29.93 in1013.5 mb 0.00 in0.0 mm 0.00 in/hr0.0 mm/hr 0.00 in0.0 mm
05:30 AM 51.6°F10.9°C 51.4°F10.8°C 99% 1.4 mph NNE2.3 kmh NNE 3.8 mph6.1 kmh 29.93 in1013.5 mb 0.00 in0.0 mm 0.00 in/hr0.0 mm/hr 0.00 in0.0 mm
05:15 AM 51.3°F10.7°C 51.0°F10.6°C 99% 1.7 mph NE2.7 kmh NE 3.8 mph6.1 kmh 29.93 in1013.5 mb 0.00 in0.0 mm 0.00 in/hr0.0 mm/hr 0.00 in0.0 mm
05:00 AM 51.3°F10.7°C 51.0°F10.6°C 99% 1.5 mph NE2.4 kmh NE 3.8 mph6.1 kmh 29.92 in1013.2 mb 0.00 in0.0 mm 0.00 in/hr0.0 mm/hr 0.00 in0.0 mm
04:45 AM 51.4°F10.8°C 51.2°F10.7°C 99% 1.0 mph NE1.6 kmh NE 3.1 mph5.0 kmh 29.93 in1013.5 mb 0.00 in0.0 mm 0.00 in/hr0.0 mm/hr 0.00 in0.0 mm
04:30 AM 51.4°F10.8°C 51.2°F10.7°C 99% 0.6 mph ENE1.0 kmh ENE 2.2 mph3.5 kmh 29.94 in1013.9 mb 0.00 in0.0 mm 0.00 in/hr0.0 mm/hr 0.00 in0.0 mm
04:15 AM 51.6°F10.9°C 51.4°F10.8°C 99% 1.5 mph NE2.4 kmh NE 3.8 mph6.1 kmh 29.94 in1013.9 mb 0.00 in0.0 mm 0.00 in/hr0.0 mm/hr 0.00 in0.0 mm
04:00 AM 52.3°F11.3°C 52.3°F11.3°C 100% 1.5 mph ENE2.4 kmh ENE 3.1 mph5.0 kmh 29.94 in1013.9 mb 0.00 in0.0 mm 0.00 in/hr0.0 mm/hr 0.00 in0.0 mm
03:45 AM 52.5°F11.4°C 52.5°F11.4°C 100% 0.7 mph NE1.1 kmh NE 3.1 mph5.0 kmh 29.94 in1013.9 mb 0.00 in0.0 mm 0.00 in/hr0.0 mm/hr 0.00 in0.0 mm
03:30 AM 52.9°F11.6°C 52.9°F11.6°C 100% 0.8 mph NE1.3 kmh NE 3.1 mph5.0 kmh 29.95 in1014.2 mb 0.00 in0.0 mm 0.00 in/hr0.0 mm/hr 0.00 in0.0 mm
03:15 AM 53.2°F11.8°C 53.2°F11.8°C 100% 0.4 mph ENE0.6 kmh ENE 2.2 mph3.5 kmh 29.94 in1013.9 mb 0.00 in0.0 mm 0.00 in/hr0.0 mm/hr 0.00 in0.0 mm
03:00 AM 53.2°F11.8°C 53.2°F11.8°C 100% 0.1 mph NNE0.2 kmh NNE 1.6 mph2.6 kmh 29.95 in1014.2 mb 0.00 in0.0 mm 0.00 in/hr0.0 mm/hr 0.00 in0.0 mm
02:45 AM 52.7°F11.5°C 52.7°F11.5°C 100% 1.1 mph NNE1.8 kmh NNE 3.8 mph6.1 kmh 29.96 in1014.6 mb 0.00 in0.0 mm 0.00 in/hr0.0 mm/hr 0.00 in0.0 mm
02:30 AM 51.3°F10.7°C 51.0°F10.6°C 99% 1.1 mph NNE1.8 kmh NNE 5.4 mph8.7 kmh 29.97 in1014.9 mb 0.00 in0.0 mm 0.00 in/hr0.0 mm/hr 0.00 in0.0 mm
02:15 AM 51.1°F10.6°C 50.8°F10.4°C 99% 0.1 mph NE0.2 kmh NE 2.2 mph3.5 kmh 29.97 in1014.9 mb 0.00 in0.0 mm 0.00 in/hr0.0 mm/hr 0.00 in0.0 mm
02:00 AM 51.4°F10.8°C 51.2°F10.7°C 99% Calm Calm -- 29.97 in1014.9 mb 0.00 in0.0 mm 0.00 in/hr0.0 mm/hr 0.00 in0.0 mm
01:45 AM 51.3°F10.7°C 51.0°F10.6°C 99% Calm Calm -- 29.97 in1014.9 mb 0.00 in0.0 mm 0.00 in/hr0.0 mm/hr 0.00 in0.0 mm
01:30 AM 50.9°F10.5°C 50.6°F10.3°C 99% Calm Calm -- 29.98 in1015.2 mb 0.00 in0.0 mm 0.00 in/hr0.0 mm/hr 0.00 in0.0 mm
01:15 AM 50.7°F10.4°C 50.5°F10.3°C 99% Calm Calm -- 29.98 in1015.2 mb 0.00 in0.0 mm 0.00 in/hr0.0 mm/hr 0.00 in0.0 mm
01:00 AM 50.9°F10.5°C 50.6°F10.3°C 99% Calm Calm -- 29.98 in1015.2 mb 0.00 in0.0 mm 0.00 in/hr0.0 mm/hr 0.00 in0.0 mm
12:45 AM 50.9°F10.5°C 50.6°F10.3°C 99% Calm Calm -- 29.98 in1015.2 mb 0.00 in0.0 mm 0.00 in/hr0.0 mm/hr 0.00 in0.0 mm
12:30 AM 50.9°F10.5°C 50.6°F10.3°C 99% Calm Calm 0.7 mph1.1 kmh 29.98 in1015.2 mb 0.00 in0.0 mm 0.00 in/hr0.0 mm/hr 0.00 in0.0 mm
12:15 AM 50.9°F10.5°C 50.6°F10.3°C 99% Calm Calm 0.7 mph1.1 kmh 29.98 in1015.2 mb 0.00 in0.0 mm 0.00 in/hr0.0 mm/hr 0.00 in0.0 mm
12:00 AM 51.4°F10.8°C 51.2°F10.7°C 99% 0.1 mph ESE0.2 kmh ESE 1.6 mph2.6 kmh 29.99 in1015.6 mb 0.00 in0.0 mm 0.00 in/hr0.0 mm/hr 0.00 in0.0 mm